sensor_id;sensor_type;location;lat;lon;timestamp;P1;durP1;ratioP1;P2;durP2;ratioP2
33716;SDS011;20046;50.746;7.072;2023-09-07T00:01:08;22.55;;;11.45;;
33716;SDS011;20046;50.746;7.072;2023-09-07T00:03:33;16.17;;;9.82;;
33716;SDS011;20046;50.746;7.072;2023-09-07T00:05:59;15.35;;;10.18;;
33716;SDS011;20046;50.746;7.072;2023-09-07T00:08:24;17.60;;;9.93;;
33716;SDS011;20046;50.746;7.072;2023-09-07T00:10:50;162.38;;;93.47;;
33716;SDS011;20046;50.746;7.072;2023-09-07T00:13:16;96.35;;;57.10;;
33716;SDS011;20046;50.746;7.072;2023-09-07T00:15:42;16.70;;;10.48;;
33716;SDS011;20046;50.746;7.072;2023-09-07T00:18:08;16.67;;;9.57;;
33716;SDS011;20046;50.746;7.072;2023-09-07T00:20:34;16.98;;;9.27;;
33716;SDS011;20046;50.746;7.072;2023-09-07T00:23:00;16.75;;;9.80;;
33716;SDS011;20046;50.746;7.072;2023-09-07T00:25:26;18.45;;;9.50;;
33716;SDS011;20046;50.746;7.072;2023-09-07T00:27:52;17.00;;;8.95;;
33716;SDS011;20046;50.746;7.072;2023-09-07T00:30:17;16.00;;;9.73;;
33716;SDS011;20046;50.746;7.072;2023-09-07T00:32:43;14.15;;;9.02;;
33716;SDS011;20046;50.746;7.072;2023-09-07T00:35:09;19.63;;;10.10;;
33716;SDS011;20046;50.746;7.072;2023-09-07T00:37:35;14.20;;;9.13;;
33716;SDS011;20046;50.746;7.072;2023-09-07T00:40:01;15.07;;;9.13;;
33716;SDS011;20046;50.746;7.072;2023-09-07T00:42:28;14.25;;;8.52;;
33716;SDS011;20046;50.746;7.072;2023-09-07T00:44:54;12.57;;;8.95;;
33716;SDS011;20046;50.746;7.072;2023-09-07T00:47:20;13.07;;;8.82;;
33716;SDS011;20046;50.746;7.072;2023-09-07T00:49:46;15.35;;;9.00;;
33716;SDS011;20046;50.746;7.072;2023-09-07T00:52:12;16.15;;;9.15;;
33716;SDS011;20046;50.746;7.072;2023-09-07T00:54:38;14.52;;;9.05;;
33716;SDS011;20046;50.746;7.072;2023-09-07T00:57:05;13.10;;;8.52;;
33716;SDS011;20046;50.746;7.072;2023-09-07T00:59:32;14.85;;;9.18;;
33716;SDS011;20046;50.746;7.072;2023-09-07T01:01:58;17.88;;;9.48;;
33716;SDS011;20046;50.746;7.072;2023-09-07T01:04:23;12.60;;;8.73;;
33716;SDS011;20046;50.746;7.072;2023-09-07T01:06:52;13.85;;;9.43;;
33716;SDS011;20046;50.746;7.072;2023-09-07T01:09:25;12.63;;;9.25;;
33716;SDS011;20046;50.746;7.072;2023-09-07T01:11:53;14.15;;;9.13;;
33716;SDS011;20046;50.746;7.072;2023-09-07T01:14:19;16.00;;;9.63;;
33716;SDS011;20046;50.746;7.072;2023-09-07T01:16:44;16.08;;;9.65;;
33716;SDS011;20046;50.746;7.072;2023-09-07T01:19:10;13.63;;;9.38;;
33716;SDS011;20046;50.746;7.072;2023-09-07T01:21:37;16.45;;;9.48;;
33716;SDS011;20046;50.746;7.072;2023-09-07T01:24:07;13.93;;;9.48;;
33716;SDS011;20046;50.746;7.072;2023-09-07T01:26:34;13.48;;;9.93;;
33716;SDS011;20046;50.746;7.072;2023-09-07T01:29:06;19.10;;;9.57;;
33716;SDS011;20046;50.746;7.072;2023-09-07T01:31:38;14.85;;;9.35;;
33716;SDS011;20046;50.746;7.072;2023-09-07T01:34:04;15.02;;;9.60;;
33716;SDS011;20046;50.746;7.072;2023-09-07T01:36:31;15.13;;;9.57;;
33716;SDS011;20046;50.746;7.072;2023-09-07T01:38:57;17.00;;;9.93;;
33716;SDS011;20046;50.746;7.072;2023-09-07T01:41:32;18.10;;;9.35;;
33716;SDS011;20046;50.746;7.072;2023-09-07T01:43:58;16.58;;;10.30;;
33716;SDS011;20046;50.746;7.072;2023-09-07T01:46:24;15.82;;;10.40;;
33716;SDS011;20046;50.746;7.072;2023-09-07T01:48:49;12.98;;;9.43;;
33716;SDS011;20046;50.746;7.072;2023-09-07T01:51:15;14.98;;;10.25;;
33716;SDS011;20046;50.746;7.072;2023-09-07T01:53:41;17.27;;;10.13;;
33716;SDS011;20046;50.746;7.072;2023-09-07T01:56:06;14.18;;;10.02;;
33716;SDS011;20046;50.746;7.072;2023-09-07T01:58:32;15.65;;;9.82;;
33716;SDS011;20046;50.746;7.072;2023-09-07T02:00:59;17.67;;;10.98;;
33716;SDS011;20046;50.746;7.072;2023-09-07T02:03:25;17.77;;;10.48;;
33716;SDS011;20046;50.746;7.072;2023-09-07T02:05:52;15.77;;;10.77;;
33716;SDS011;20046;50.746;7.072;2023-09-07T02:08:18;18.15;;;10.23;;
33716;SDS011;20046;50.746;7.072;2023-09-07T02:10:43;17.83;;;10.82;;
33716;SDS011;20046;50.746;7.072;2023-09-07T02:13:09;17.95;;;10.15;;
33716;SDS011;20046;50.746;7.072;2023-09-07T02:15:38;15.30;;;9.27;;
33716;SDS011;20046;50.746;7.072;2023-09-07T02:18:04;18.95;;;12.13;;
33716;SDS011;20046;50.746;7.072;2023-09-07T02:20:31;19.65;;;10.82;;
33716;SDS011;20046;50.746;7.072;2023-09-07T02:22:57;22.55;;;10.85;;
33716;SDS011;20046;50.746;7.072;2023-09-07T02:25:23;21.00;;;13.07;;
33716;SDS011;20046;50.746;7.072;2023-09-07T02:27:49;21.77;;;10.70;;
33716;SDS011;20046;50.746;7.072;2023-09-07T02:30:14;18.42;;;10.75;;
33716;SDS011;20046;50.746;7.072;2023-09-07T02:32:43;17.20;;;10.45;;
33716;SDS011;20046;50.746;7.072;2023-09-07T02:35:09;24.98;;;10.15;;
33716;SDS011;20046;50.746;7.072;2023-09-07T02:37:35;17.85;;;10.10;;
33716;SDS011;20046;50.746;7.072;2023-09-07T02:40:01;16.10;;;11.50;;
33716;SDS011;20046;50.746;7.072;2023-09-07T02:42:31;18.08;;;10.65;;
33716;SDS011;20046;50.746;7.072;2023-09-07T02:44:57;17.58;;;10.25;;
33716;SDS011;20046;50.746;7.072;2023-09-07T02:47:23;16.98;;;10.77;;
33716;SDS011;20046;50.746;7.072;2023-09-07T02:49:48;18.52;;;11.13;;
33716;SDS011;20046;50.746;7.072;2023-09-07T02:52:14;15.48;;;10.73;;
33716;SDS011;20046;50.746;7.072;2023-09-07T02:54:39;15.20;;;10.35;;
33716;SDS011;20046;50.746;7.072;2023-09-07T02:57:06;16.40;;;10.90;;
33716;SDS011;20046;50.746;7.072;2023-09-07T02:59:32;17.38;;;10.07;;
33716;SDS011;20046;50.746;7.072;2023-09-07T03:01:58;20.08;;;11.10;;
33716;SDS011;20046;50.746;7.072;2023-09-07T03:04:23;16.50;;;10.43;;
33716;SDS011;20046;50.746;7.072;2023-09-07T03:06:49;15.18;;;9.50;;
33716;SDS011;20046;50.746;7.072;2023-09-07T03:09:14;19.67;;;10.10;;
33716;SDS011;20046;50.746;7.072;2023-09-07T03:11:40;12.10;;;9.07;;
33716;SDS011;20046;50.746;7.072;2023-09-07T03:14:05;18.13;;;10.40;;
33716;SDS011;20046;50.746;7.072;2023-09-07T03:16:31;22.65;;;10.10;;
33716;SDS011;20046;50.746;7.072;2023-09-07T03:18:57;15.93;;;10.77;;
33716;SDS011;20046;50.746;7.072;2023-09-07T03:21:22;17.52;;;10.63;;
33716;SDS011;20046;50.746;7.072;2023-09-07T03:23:54;16.50;;;11.65;;
33716;SDS011;20046;50.746;7.072;2023-09-07T03:26:20;14.20;;;10.75;;
33716;SDS011;20046;50.746;7.072;2023-09-07T03:28:46;23.20;;;12.40;;
33716;SDS011;20046;50.746;7.072;2023-09-07T03:31:11;17.13;;;12.35;;
33716;SDS011;20046;50.746;7.072;2023-09-07T03:33:37;17.30;;;12.40;;
33716;SDS011;20046;50.746;7.072;2023-09-07T03:36:03;19.08;;;12.07;;
33716;SDS011;20046;50.746;7.072;2023-09-07T03:38:28;18.50;;;12.65;;
33716;SDS011;20046;50.746;7.072;2023-09-07T03:40:54;17.45;;;13.43;;
33716;SDS011;20046;50.746;7.072;2023-09-07T03:43:20;25.92;;;14.43;;
33716;SDS011;20046;50.746;7.072;2023-09-07T03:45:46;16.70;;;11.90;;
33716;SDS011;20046;50.746;7.072;2023-09-07T03:48:12;19.42;;;11.88;;
33716;SDS011;20046;50.746;7.072;2023-09-07T03:50:37;18.75;;;12.02;;
33716;SDS011;20046;50.746;7.072;2023-09-07T03:53:03;18.23;;;13.05;;
33716;SDS011;20046;50.746;7.072;2023-09-07T03:55:28;18.42;;;12.90;;
33716;SDS011;20046;50.746;7.072;2023-09-07T03:57:54;18.52;;;13.90;;
33716;SDS011;20046;50.746;7.072;2023-09-07T04:00:20;22.05;;;13.70;;
33716;SDS011;20046;50.746;7.072;2023-09-07T04:02:46;21.45;;;14.75;;
33716;SDS011;20046;50.746;7.072;2023-09-07T04:05:11;22.17;;;14.50;;
33716;SDS011;20046;50.746;7.072;2023-09-07T04:07:37;23.80;;;13.35;;
33716;SDS011;20046;50.746;7.072;2023-09-07T04:10:03;22.17;;;12.93;;
33716;SDS011;20046;50.746;7.072;2023-09-07T04:12:30;20.98;;;13.63;;
33716;SDS011;20046;50.746;7.072;2023-09-07T04:14:56;22.08;;;13.18;;
33716;SDS011;20046;50.746;7.072;2023-09-07T04:17:21;20.73;;;13.60;;
33716;SDS011;20046;50.746;7.072;2023-09-07T04:19:47;21.95;;;12.73;;
33716;SDS011;20046;50.746;7.072;2023-09-07T04:22:13;20.75;;;14.05;;
33716;SDS011;20046;50.746;7.072;2023-09-07T04:24:38;24.90;;;12.85;;
33716;SDS011;20046;50.746;7.072;2023-09-07T04:27:04;22.20;;;14.73;;
33716;SDS011;20046;50.746;7.072;2023-09-07T04:29:29;25.08;;;14.43;;
33716;SDS011;20046;50.746;7.072;2023-09-07T04:31:55;16.17;;;11.88;;
33716;SDS011;20046;50.746;7.072;2023-09-07T04:34:21;22.63;;;14.10;;
33716;SDS011;20046;50.746;7.072;2023-09-07T04:36:47;18.73;;;14.02;;
33716;SDS011;20046;50.746;7.072;2023-09-07T04:39:13;19.77;;;13.90;;
33716;SDS011;20046;50.746;7.072;2023-09-07T04:41:39;20.77;;;14.60;;
33716;SDS011;20046;50.746;7.072;2023-09-07T04:44:05;21.27;;;13.60;;
33716;SDS011;20046;50.746;7.072;2023-09-07T04:46:31;25.85;;;15.32;;
33716;SDS011;20046;50.746;7.072;2023-09-07T04:48:56;19.55;;;13.45;;
33716;SDS011;20046;50.746;7.072;2023-09-07T04:51:22;25.52;;;13.38;;
33716;SDS011;20046;50.746;7.072;2023-09-07T04:53:49;24.92;;;13.85;;
33716;SDS011;20046;50.746;7.072;2023-09-07T04:56:14;22.15;;;13.10;;
33716;SDS011;20046;50.746;7.072;2023-09-07T04:58:41;22.83;;;13.35;;
33716;SDS011;20046;50.746;7.072;2023-09-07T05:01:08;32.00;;;14.73;;
33716;SDS011;20046;50.746;7.072;2023-09-07T05:03:35;28.98;;;15.10;;
33716;SDS011;20046;50.746;7.072;2023-09-07T05:06:01;31.65;;;16.83;;
33716;SDS011;20046;50.746;7.072;2023-09-07T05:08:28;25.40;;;16.15;;
33716;SDS011;20046;50.746;7.072;2023-09-07T05:10:58;31.27;;;15.75;;
33716;SDS011;20046;50.746;7.072;2023-09-07T05:13:25;30.67;;;15.75;;
33716;SDS011;20046;50.746;7.072;2023-09-07T05:15:51;24.13;;;16.92;;
33716;SDS011;20046;50.746;7.072;2023-09-07T05:18:18;27.77;;;17.08;;
33716;SDS011;20046;50.746;7.072;2023-09-07T05:20:43;20.35;;;16.52;;
33716;SDS011;20046;50.746;7.072;2023-09-07T05:23:13;23.98;;;16.55;;
33716;SDS011;20046;50.746;7.072;2023-09-07T05:25:47;20.50;;;15.90;;
33716;SDS011;20046;50.746;7.072;2023-09-07T05:28:15;23.45;;;15.23;;
33716;SDS011;20046;50.746;7.072;2023-09-07T05:30:41;23.38;;;15.20;;
33716;SDS011;20046;50.746;7.072;2023-09-07T05:33:11;21.92;;;15.38;;
33716;SDS011;20046;50.746;7.072;2023-09-07T05:35:37;18.02;;;14.07;;
33716;SDS011;20046;50.746;7.072;2023-09-07T05:38:06;20.58;;;13.95;;
33716;SDS011;20046;50.746;7.072;2023-09-07T05:40:35;23.55;;;13.15;;
33716;SDS011;20046;50.746;7.072;2023-09-07T05:43:02;18.45;;;12.15;;
33716;SDS011;20046;50.746;7.072;2023-09-07T05:45:29;17.05;;;11.90;;
33716;SDS011;20046;50.746;7.072;2023-09-07T05:48:04;18.95;;;11.07;;
33716;SDS011;20046;50.746;7.072;2023-09-07T05:50:34;13.68;;;10.50;;
33716;SDS011;20046;50.746;7.072;2023-09-07T05:53:00;18.02;;;11.23;;
33716;SDS011;20046;50.746;7.072;2023-09-07T05:55:26;15.70;;;11.05;;
33716;SDS011;20046;50.746;7.072;2023-09-07T05:57:54;20.88;;;11.35;;
33716;SDS011;20046;50.746;7.072;2023-09-07T06:00:20;14.73;;;9.82;;
33716;SDS011;20046;50.746;7.072;2023-09-07T06:02:46;17.75;;;9.57;;
33716;SDS011;20046;50.746;7.072;2023-09-07T06:05:12;16.85;;;9.05;;
33716;SDS011;20046;50.746;7.072;2023-09-07T06:07:38;14.27;;;9.65;;
33716;SDS011;20046;50.746;7.072;2023-09-07T06:10:03;11.60;;;8.70;;
33716;SDS011;20046;50.746;7.072;2023-09-07T06:12:30;13.25;;;9.25;;
33716;SDS011;20046;50.746;7.072;2023-09-07T06:14:59;17.83;;;8.77;;
33716;SDS011;20046;50.746;7.072;2023-09-07T06:17:26;19.60;;;9.13;;
33716;SDS011;20046;50.746;7.072;2023-09-07T06:19:52;12.60;;;7.95;;
33716;SDS011;20046;50.746;7.072;2023-09-07T06:22:18;13.05;;;8.27;;
33716;SDS011;20046;50.746;7.072;2023-09-07T06:24:44;12.98;;;8.23;;
33716;SDS011;20046;50.746;7.072;2023-09-07T06:27:09;13.77;;;8.25;;
33716;SDS011;20046;50.746;7.072;2023-09-07T06:29:35;13.52;;;7.82;;
33716;SDS011;20046;50.746;7.072;2023-09-07T06:32:01;13.77;;;7.63;;
33716;SDS011;20046;50.746;7.072;2023-09-07T06:34:26;12.50;;;6.93;;
33716;SDS011;20046;50.746;7.072;2023-09-07T06:36:52;12.50;;;7.70;;
33716;SDS011;20046;50.746;7.072;2023-09-07T06:39:17;11.93;;;7.20;;
33716;SDS011;20046;50.746;7.072;2023-09-07T06:41:46;11.65;;;7.40;;
33716;SDS011;20046;50.746;7.072;2023-09-07T06:44:12;12.52;;;6.72;;
33716;SDS011;20046;50.746;7.072;2023-09-07T06:46:37;13.25;;;6.40;;
33716;SDS011;20046;50.746;7.072;2023-09-07T06:49:03;9.75;;;7.25;;
33716;SDS011;20046;50.746;7.072;2023-09-07T06:51:30;10.73;;;6.47;;
33716;SDS011;20046;50.746;7.072;2023-09-07T06:53:56;13.60;;;6.72;;
33716;SDS011;20046;50.746;7.072;2023-09-07T06:56:21;10.25;;;7.00;;
33716;SDS011;20046;50.746;7.072;2023-09-07T06:58:47;14.65;;;7.18;;
33716;SDS011;20046;50.746;7.072;2023-09-07T07:01:13;11.48;;;6.95;;
33716;SDS011;20046;50.746;7.072;2023-09-07T07:03:38;12.50;;;7.18;;
33716;SDS011;20046;50.746;7.072;2023-09-07T07:06:04;9.80;;;6.78;;
33716;SDS011;20046;50.746;7.072;2023-09-07T07:08:30;15.35;;;7.53;;
33716;SDS011;20046;50.746;7.072;2023-09-07T07:10:55;10.15;;;6.32;;
33716;SDS011;20046;50.746;7.072;2023-09-07T07:13:21;16.85;;;6.57;;
33716;SDS011;20046;50.746;7.072;2023-09-07T07:15:46;16.42;;;7.35;;
33716;SDS011;20046;50.746;7.072;2023-09-07T07:18:12;8.90;;;6.80;;
33716;SDS011;20046;50.746;7.072;2023-09-07T07:20:38;12.65;;;6.75;;
33716;SDS011;20046;50.746;7.072;2023-09-07T07:23:04;12.10;;;6.65;;
33716;SDS011;20046;50.746;7.072;2023-09-07T07:25:33;13.00;;;7.13;;
33716;SDS011;20046;50.746;7.072;2023-09-07T07:27:59;11.20;;;6.70;;
33716;SDS011;20046;50.746;7.072;2023-09-07T07:30:29;12.05;;;6.70;;
33716;SDS011;20046;50.746;7.072;2023-09-07T07:32:55;11.43;;;6.47;;
33716;SDS011;20046;50.746;7.072;2023-09-07T07:35:21;11.77;;;6.32;;
33716;SDS011;20046;50.746;7.072;2023-09-07T07:37:47;14.32;;;6.63;;
33716;SDS011;20046;50.746;7.072;2023-09-07T07:40:14;10.30;;;6.53;;
33716;SDS011;20046;50.746;7.072;2023-09-07T07:42:39;11.40;;;5.78;;
33716;SDS011;20046;50.746;7.072;2023-09-07T07:45:05;10.30;;;5.82;;
33716;SDS011;20046;50.746;7.072;2023-09-07T07:47:31;12.98;;;5.95;;
33716;SDS011;20046;50.746;7.072;2023-09-07T07:49:57;10.50;;;6.03;;
33716;SDS011;20046;50.746;7.072;2023-09-07T07:52:23;12.25;;;6.18;;
33716;SDS011;20046;50.746;7.072;2023-09-07T07:54:48;12.95;;;5.32;;
33716;SDS011;20046;50.746;7.072;2023-09-07T07:57:14;13.10;;;6.30;;
33716;SDS011;20046;50.746;7.072;2023-09-07T07:59:39;8.50;;;5.78;;
33716;SDS011;20046;50.746;7.072;2023-09-07T08:02:05;13.93;;;6.63;;
33716;SDS011;20046;50.746;7.072;2023-09-07T08:04:31;10.15;;;5.45;;
33716;SDS011;20046;50.746;7.072;2023-09-07T08:06:57;11.88;;;5.55;;
33716;SDS011;20046;50.746;7.072;2023-09-07T08:09:28;8.23;;;5.70;;
33716;SDS011;20046;50.746;7.072;2023-09-07T08:11:57;9.35;;;5.35;;
33716;SDS011;20046;50.746;7.072;2023-09-07T08:14:23;8.02;;;4.82;;
33716;SDS011;20046;50.746;7.072;2023-09-07T08:16:49;7.22;;;4.57;;
33716;SDS011;20046;50.746;7.072;2023-09-07T08:19:15;12.70;;;5.07;;
33716;SDS011;20046;50.746;7.072;2023-09-07T08:21:41;11.30;;;5.00;;
33716;SDS011;20046;50.746;7.072;2023-09-07T08:24:07;9.02;;;5.60;;
33716;SDS011;20046;50.746;7.072;2023-09-07T08:26:34;11.02;;;5.13;;
33716;SDS011;20046;50.746;7.072;2023-09-07T08:29:00;9.15;;;5.13;;
33716;SDS011;20046;50.746;7.072;2023-09-07T08:31:30;5.47;;;4.43;;
33716;SDS011;20046;50.746;7.072;2023-09-07T08:34:00;7.45;;;4.32;;
33716;SDS011;20046;50.746;7.072;2023-09-07T08:36:30;9.38;;;4.28;;
33716;SDS011;20046;50.746;7.072;2023-09-07T08:39:02;11.32;;;5.25;;
33716;SDS011;20046;50.746;7.072;2023-09-07T08:41:39;7.32;;;4.25;;
33716;SDS011;20046;50.746;7.072;2023-09-07T08:44:11;5.35;;;3.88;;
33716;SDS011;20046;50.746;7.072;2023-09-07T08:46:40;5.25;;;4.10;;
33716;SDS011;20046;50.746;7.072;2023-09-07T08:49:06;7.88;;;4.72;;
33716;SDS011;20046;50.746;7.072;2023-09-07T08:51:32;10.23;;;4.65;;
33716;SDS011;20046;50.746;7.072;2023-09-07T08:53:58;8.93;;;4.65;;
33716;SDS011;20046;50.746;7.072;2023-09-07T08:56:24;12.85;;;9.23;;
33716;SDS011;20046;50.746;7.072;2023-09-07T08:58:50;7.60;;;6.07;;
33716;SDS011;20046;50.746;7.072;2023-09-07T09:01:16;8.68;;;5.22;;
33716;SDS011;20046;50.746;7.072;2023-09-07T09:03:42;5.72;;;4.25;;
33716;SDS011;20046;50.746;7.072;2023-09-07T09:06:08;7.43;;;3.97;;
33716;SDS011;20046;50.746;7.072;2023-09-07T09:08:45;5.38;;;4.13;;
33716;SDS011;20046;50.746;7.072;2023-09-07T09:11:18;7.18;;;4.65;;
33716;SDS011;20046;50.746;7.072;2023-09-07T09:13:45;5.95;;;4.30;;
33716;SDS011;20046;50.746;7.072;2023-09-07T09:16:11;8.65;;;4.57;;
33716;SDS011;20046;50.746;7.072;2023-09-07T09:18:38;11.02;;;4.55;;
33716;SDS011;20046;50.746;7.072;2023-09-07T09:21:12;6.43;;;4.43;;
33716;SDS011;20046;50.746;7.072;2023-09-07T09:23:39;9.63;;;4.38;;
33716;SDS011;20046;50.746;7.072;2023-09-07T09:26:06;6.45;;;4.15;;
33716;SDS011;20046;50.746;7.072;2023-09-07T09:28:32;15.35;;;4.40;;
33716;SDS011;20046;50.746;7.072;2023-09-07T09:30:59;7.80;;;4.20;;
33716;SDS011;20046;50.746;7.072;2023-09-07T09:33:32;7.15;;;4.18;;
33716;SDS011;20046;50.746;7.072;2023-09-07T09:35:58;8.00;;;4.72;;
33716;SDS011;20046;50.746;7.072;2023-09-07T09:38:24;8.27;;;4.65;;
33716;SDS011;20046;50.746;7.072;2023-09-07T09:40:50;7.47;;;4.47;;
33716;SDS011;20046;50.746;7.072;2023-09-07T09:43:17;7.03;;;5.45;;
33716;SDS011;20046;50.746;7.072;2023-09-07T09:45:45;6.75;;;4.80;;
33716;SDS011;20046;50.746;7.072;2023-09-07T09:48:10;9.35;;;4.35;;
33716;SDS011;20046;50.746;7.072;2023-09-07T09:50:38;10.35;;;4.75;;
33716;SDS011;20046;50.746;7.072;2023-09-07T09:53:05;9.70;;;4.47;;
33716;SDS011;20046;50.746;7.072;2023-09-07T09:55:32;6.15;;;4.20;;
33716;SDS011;20046;50.746;7.072;2023-09-07T09:57:58;10.23;;;4.97;;
33716;SDS011;20046;50.746;7.072;2023-09-07T10:00:24;6.43;;;4.82;;
33716;SDS011;20046;50.746;7.072;2023-09-07T10:02:53;7.95;;;5.00;;
33716;SDS011;20046;50.746;7.072;2023-09-07T10:05:29;9.45;;;4.97;;
33716;SDS011;20046;50.746;7.072;2023-09-07T10:07:59;14.95;;;4.90;;
33716;SDS011;20046;50.746;7.072;2023-09-07T10:10:32;8.63;;;4.97;;
33716;SDS011;20046;50.746;7.072;2023-09-07T10:13:00;13.55;;;4.53;;
33716;SDS011;20046;50.746;7.072;2023-09-07T10:15:27;7.03;;;5.00;;
33716;SDS011;20046;50.746;7.072;2023-09-07T10:18:06;10.35;;;4.45;;
33716;SDS011;20046;50.746;7.072;2023-09-07T10:20:55;6.97;;;4.40;;
33716;SDS011;20046;50.746;7.072;2023-09-07T10:23:23;5.78;;;4.60;;
33716;SDS011;20046;50.746;7.072;2023-09-07T10:26:04;8.23;;;5.07;;
33716;SDS011;20046;50.746;7.072;2023-09-07T10:28:34;9.90;;;4.90;;
33716;SDS011;20046;50.746;7.072;2023-09-07T10:31:03;8.52;;;4.68;;
33716;SDS011;20046;50.746;7.072;2023-09-07T10:33:31;7.75;;;4.30;;
33716;SDS011;20046;50.746;7.072;2023-09-07T10:35:58;12.57;;;4.68;;
33716;SDS011;20046;50.746;7.072;2023-09-07T10:38:24;6.82;;;4.40;;
33716;SDS011;20046;50.746;7.072;2023-09-07T10:40:54;8.77;;;4.40;;
33716;SDS011;20046;50.746;7.072;2023-09-07T10:43:29;7.15;;;4.50;;
33716;SDS011;20046;50.746;7.072;2023-09-07T10:45:57;7.47;;;4.43;;
33716;SDS011;20046;50.746;7.072;2023-09-07T10:48:24;9.20;;;5.13;;
33716;SDS011;20046;50.746;7.072;2023-09-07T10:50:51;7.43;;;4.57;;
33716;SDS011;20046;50.746;7.072;2023-09-07T10:53:27;9.75;;;4.35;;
33716;SDS011;20046;50.746;7.072;2023-09-07T10:55:57;8.18;;;4.63;;
33716;SDS011;20046;50.746;7.072;2023-09-07T10:58:31;8.23;;;3.75;;
33716;SDS011;20046;50.746;7.072;2023-09-07T11:01:04;7.88;;;4.63;;
33716;SDS011;20046;50.746;7.072;2023-09-07T11:03:30;7.88;;;4.25;;
33716;SDS011;20046;50.746;7.072;2023-09-07T11:08:39;5.95;;;3.90;;
33716;SDS011;20046;50.746;7.072;2023-09-07T11:11:04;7.45;;;4.10;;
33716;SDS011;20046;50.746;7.072;2023-09-07T11:13:30;7.65;;;4.28;;
33716;SDS011;20046;50.746;7.072;2023-09-07T11:15:57;8.80;;;4.22;;
33716;SDS011;20046;50.746;7.072;2023-09-07T11:18:24;6.90;;;3.88;;
33716;SDS011;20046;50.746;7.072;2023-09-07T11:20:50;5.50;;;4.00;;
33716;SDS011;20046;50.746;7.072;2023-09-07T11:23:17;8.13;;;4.30;;
33716;SDS011;20046;50.746;7.072;2023-09-07T11:25:44;8.20;;;4.20;;
33716;SDS011;20046;50.746;7.072;2023-09-07T11:28:11;10.02;;;4.55;;
33716;SDS011;20046;50.746;7.072;2023-09-07T11:30:37;10.27;;;4.05;;
33716;SDS011;20046;50.746;7.072;2023-09-07T11:33:15;6.85;;;3.90;;
33716;SDS011;20046;50.746;7.072;2023-09-07T11:35:41;4.38;;;3.83;;
33716;SDS011;20046;50.746;7.072;2023-09-07T11:38:07;5.80;;;3.80;;
33716;SDS011;20046;50.746;7.072;2023-09-07T11:40:35;4.53;;;3.58;;
33716;SDS011;20046;50.746;7.072;2023-09-07T11:43:01;5.65;;;3.75;;
33716;SDS011;20046;50.746;7.072;2023-09-07T11:45:26;8.05;;;3.80;;
33716;SDS011;20046;50.746;7.072;2023-09-07T11:47:52;6.75;;;3.75;;
33716;SDS011;20046;50.746;7.072;2023-09-07T11:50:18;6.47;;;3.33;;
33716;SDS011;20046;50.746;7.072;2023-09-07T11:52:44;9.88;;;3.42;;
33716;SDS011;20046;50.746;7.072;2023-09-07T11:55:10;7.70;;;3.38;;
33716;SDS011;20046;50.746;7.072;2023-09-07T11:57:38;5.53;;;3.17;;
33716;SDS011;20046;50.746;7.072;2023-09-07T12:00:06;8.00;;;3.30;;
33716;SDS011;20046;50.746;7.072;2023-09-07T12:02:36;4.80;;;3.20;;
33716;SDS011;20046;50.746;7.072;2023-09-07T12:05:03;6.05;;;2.95;;
33716;SDS011;20046;50.746;7.072;2023-09-07T12:07:30;5.93;;;3.80;;
33716;SDS011;20046;50.746;7.072;2023-09-07T12:09:56;4.57;;;3.10;;
33716;SDS011;20046;50.746;7.072;2023-09-07T12:12:22;6.78;;;3.25;;
33716;SDS011;20046;50.746;7.072;2023-09-07T12:14:48;9.23;;;3.55;;
33716;SDS011;20046;50.746;7.072;2023-09-07T12:17:14;5.68;;;3.42;;
33716;SDS011;20046;50.746;7.072;2023-09-07T12:19:39;6.47;;;4.05;;
33716;SDS011;20046;50.746;7.072;2023-09-07T12:22:07;7.90;;;3.47;;
33716;SDS011;20046;50.746;7.072;2023-09-07T12:24:33;5.35;;;3.25;;
33716;SDS011;20046;50.746;7.072;2023-09-07T12:26:58;4.80;;;3.47;;
33716;SDS011;20046;50.746;7.072;2023-09-07T12:29:25;6.95;;;3.67;;
33716;SDS011;20046;50.746;7.072;2023-09-07T12:31:50;9.90;;;3.90;;
33716;SDS011;20046;50.746;7.072;2023-09-07T12:34:16;7.47;;;3.25;;
33716;SDS011;20046;50.746;7.072;2023-09-07T12:36:42;4.07;;;3.47;;
33716;SDS011;20046;50.746;7.072;2023-09-07T12:39:07;9.15;;;3.40;;
33716;SDS011;20046;50.746;7.072;2023-09-07T12:41:33;4.88;;;3.42;;
33716;SDS011;20046;50.746;7.072;2023-09-07T12:43:59;4.88;;;3.60;;
33716;SDS011;20046;50.746;7.072;2023-09-07T12:46:24;8.90;;;3.75;;
33716;SDS011;20046;50.746;7.072;2023-09-07T12:48:50;8.48;;;3.40;;
33716;SDS011;20046;50.746;7.072;2023-09-07T12:51:16;9.35;;;4.03;;
33716;SDS011;20046;50.746;7.072;2023-09-07T12:53:41;7.10;;;3.25;;
33716;SDS011;20046;50.746;7.072;2023-09-07T12:56:07;8.48;;;3.58;;
33716;SDS011;20046;50.746;7.072;2023-09-07T12:58:32;5.07;;;3.30;;
33716;SDS011;20046;50.746;7.072;2023-09-07T13:00:58;6.82;;;3.78;;
33716;SDS011;20046;50.746;7.072;2023-09-07T13:03:23;8.65;;;4.03;;
33716;SDS011;20046;50.746;7.072;2023-09-07T13:05:49;4.47;;;3.60;;
33716;SDS011;20046;50.746;7.072;2023-09-07T13:08:15;8.85;;;3.72;;
33716;SDS011;20046;50.746;7.072;2023-09-07T13:10:40;11.45;;;3.72;;
33716;SDS011;20046;50.746;7.072;2023-09-07T13:13:06;5.32;;;3.60;;
33716;SDS011;20046;50.746;7.072;2023-09-07T13:15:32;7.63;;;3.78;;
33716;SDS011;20046;50.746;7.072;2023-09-07T13:17:58;8.27;;;3.58;;
33716;SDS011;20046;50.746;7.072;2023-09-07T13:20:24;5.78;;;3.47;;
33716;SDS011;20046;50.746;7.072;2023-09-07T13:22:49;6.97;;;3.65;;
33716;SDS011;20046;50.746;7.072;2023-09-07T13:25:15;5.60;;;3.67;;
33716;SDS011;20046;50.746;7.072;2023-09-07T13:27:40;5.18;;;3.83;;
33716;SDS011;20046;50.746;7.072;2023-09-07T13:30:06;6.10;;;3.60;;
33716;SDS011;20046;50.746;7.072;2023-09-07T13:32:37;12.07;;;4.40;;
33716;SDS011;20046;50.746;7.072;2023-09-07T13:35:03;9.77;;;3.95;;
33716;SDS011;20046;50.746;7.072;2023-09-07T13:37:29;4.65;;;3.65;;
33716;SDS011;20046;50.746;7.072;2023-09-07T13:39:55;6.55;;;3.63;;
33716;SDS011;20046;50.746;7.072;2023-09-07T13:42:20;9.20;;;3.60;;
33716;SDS011;20046;50.746;7.072;2023-09-07T13:44:46;4.63;;;3.88;;
33716;SDS011;20046;50.746;7.072;2023-09-07T13:47:12;8.25;;;4.00;;
33716;SDS011;20046;50.746;7.072;2023-09-07T13:49:38;5.50;;;3.95;;
33716;SDS011;20046;50.746;7.072;2023-09-07T13:52:04;7.43;;;3.92;;
33716;SDS011;20046;50.746;7.072;2023-09-07T13:54:29;4.25;;;3.70;;
33716;SDS011;20046;50.746;7.072;2023-09-07T13:56:55;5.28;;;3.67;;
33716;SDS011;20046;50.746;7.072;2023-09-07T13:59:21;7.97;;;4.25;;
33716;SDS011;20046;50.746;7.072;2023-09-07T14:01:46;5.32;;;3.92;;
33716;SDS011;20046;50.746;7.072;2023-09-07T14:04:14;6.93;;;4.10;;
33716;SDS011;20046;50.746;7.072;2023-09-07T14:06:39;6.10;;;4.32;;
33716;SDS011;20046;50.746;7.072;2023-09-07T14:09:05;5.72;;;3.78;;
33716;SDS011;20046;50.746;7.072;2023-09-07T14:11:31;7.55;;;3.60;;
33716;SDS011;20046;50.746;7.072;2023-09-07T14:13:58;8.07;;;4.40;;
33716;SDS011;20046;50.746;7.072;2023-09-07T14:16:23;7.32;;;4.07;;
33716;SDS011;20046;50.746;7.072;2023-09-07T14:18:49;4.70;;;3.72;;
33716;SDS011;20046;50.746;7.072;2023-09-07T14:21:16;4.85;;;3.83;;
33716;SDS011;20046;50.746;7.072;2023-09-07T14:23:42;4.63;;;3.53;;
33716;SDS011;20046;50.746;7.072;2023-09-07T14:26:08;4.30;;;3.75;;
33716;SDS011;20046;50.746;7.072;2023-09-07T14:28:34;7.57;;;3.80;;
33716;SDS011;20046;50.746;7.072;2023-09-07T14:31:00;7.13;;;3.92;;
33716;SDS011;20046;50.746;7.072;2023-09-07T14:33:29;6.68;;;4.05;;
33716;SDS011;20046;50.746;7.072;2023-09-07T14:35:55;8.23;;;4.50;;